Aviation Digital Data Service (ADDS)

Output produced by METARs form (0204 UTC 26 April 2019)
found at http://www.aviationweather.gov/metar/data/
 
METAR text: EPRZ 260200Z VRB02KT CAVOK 12/09 Q1014
Conditions at: EPRZ (RZESZOW/JASIONKA, PL) observed 0200 UTC 26 April 2019
Temperature: 12.0°C (54°F)
Dewpoint: 9.0°C (48°F) [RH = 82%]
Pressure (altimeter): 29.94 inches Hg (1014.0 mb)
Winds: variable direction winds at 2 MPH (2 knots; 1.0 m/s)
Visibility: 6 or more miles (10+ km)
Ceiling: ceiling and visibility are OK
Clouds: unknown
Weather: no significant weather observed at this time

METAR text: EPRZ 260130Z VRB02KT CAVOK 10/08 Q1015
Conditions at: EPRZ (RZESZOW/JASIONKA, PL) observed 0130 UTC 26 April 2019
Temperature: 10.0°C (50°F)
Dewpoint: 8.0°C (46°F) [RH = 87%]
Pressure (altimeter): 29.97 inches Hg (1015.0 mb)
Winds: variable direction winds at 2 MPH (2 knots; 1.0 m/s)
Visibility: 6 or more miles (10+ km)
Ceiling: ceiling and visibility are OK
Clouds: unknown
Weather: no significant weather observed at this time

Forecast for: EPRZ (RZESZOW/JASIONKA, PL)
Text: TAF EPRZ 252330Z 2600/2624 VRB02KT CAVOK
Forecast period: 0000 to 0600 UTC 26 April 2019
Forecast type: FROM: standard forecast or significant change
Winds: variable direction winds at 2 MPH (2 knots; 1.0 m/s)
Visibility: 6 or more miles 10+ km)
Ceiling: unknown
Clouds: missing
Weather: NSW  (no significant weather)
Text: BECMG 2606/2608 20020G32KT
Forecast period: 0600 to 1500 UTC 26 April 2019
Forecast type: BECOMING: Conditions expected to become as follows by 0800 UTC 26 April 2019
Winds: from the SSW (200 degrees) at 23 MPH (20 knots; 10.3 m/s)
gusting to 37 MPH (32 knots; 16.5 m/s)
Visibility: 6 or more miles 10+ km)
Ceiling: unknown
Clouds: missing
Weather: NSW  (no significant weather)
Text: BECMG 2615/2618 20010KT
Forecast period: 1500 UTC 26 April 2019 to 0000 UTC 27 April 2019
Forecast type: BECOMING: Conditions expected to become as follows by 1800 UTC 26 April 2019
Winds: from the SSW (200 degrees) at 12 MPH (10 knots; 5.1 m/s)
Visibility: 6 or more miles 10+ km)
Ceiling: unknown
Clouds: missing
Weather: NSW  (no significant weather)